createdAt,value
2023-05-19T04:00:32.524Z,10.42
2023-05-19T04:03:17.878Z,10.40
2023-05-19T04:06:02.563Z,10.40
2023-05-19T04:08:47.372Z,10.39
2023-05-19T04:11:32.241Z,10.54
2023-05-19T04:14:17.016Z,10.22
2023-05-19T04:17:02.111Z,10.34
2023-05-19T04:19:46.932Z,10.26
2023-05-19T04:22:31.912Z,10.28
2023-05-19T04:25:16.872Z,10.22
2023-05-19T04:28:01.709Z,10.31
2023-05-19T04:30:46.715Z,10.53
2023-05-19T04:33:31.378Z,10.45
2023-05-19T04:36:16.341Z,9.98
2023-05-19T04:39:01.202Z,10.34
2023-05-19T04:41:46.095Z,10.61
2023-05-19T04:44:30.952Z,10.72
2023-05-19T04:47:15.823Z,10.84
2023-05-19T04:50:00.628Z,10.90
2023-05-19T04:52:45.687Z,10.89
2023-05-19T04:55:30.434Z,10.72
2023-05-19T04:58:15.250Z,11.10
2023-05-19T05:01:00.152Z,11.00
2023-05-19T05:03:45.057Z,10.95
2023-05-19T05:06:30.030Z,10.98
2023-05-19T05:09:14.780Z,11.28
2023-05-19T05:11:59.770Z,11.28
2023-05-19T05:14:44.631Z,11.59
2023-05-19T05:17:29.564Z,11.62
2023-05-19T05:20:14.184Z,11.79
2023-05-19T05:22:59.004Z,11.88
2023-05-19T05:25:43.863Z,11.94
2023-05-19T05:28:28.801Z,11.97
2023-05-19T05:31:13.621Z,12.10
2023-05-19T05:33:58.487Z,11.98
2023-05-19T05:36:43.253Z,12.20
2023-05-19T05:39:28.114Z,12.27
2023-05-19T05:42:13.183Z,12.23
2023-05-19T05:44:58.017Z,12.39
2023-05-19T05:47:42.766Z,11.79
2023-05-19T05:50:27.726Z,11.58
2023-05-19T05:53:12.554Z,10.80
2023-05-19T05:55:57.395Z,11.12
2023-05-19T05:58:42.260Z,10.92
2023-05-19T06:01:27.215Z,10.73
2023-05-19T06:04:12.024Z,11.02
2023-05-19T06:06:57.163Z,11.41
2023-05-19T06:09:42.090Z,11.90
2023-05-19T06:12:26.892Z,12.34
2023-05-19T06:15:11.692Z,12.59
2023-05-19T06:17:56.557Z,13.00
2023-05-19T06:20:41.319Z,13.14
2023-05-19T06:23:26.125Z,13.27
2023-05-19T06:26:10.984Z,13.29
2023-05-19T06:28:55.812Z,13.07
2023-05-19T06:31:40.872Z,13.33
2023-05-19T06:34:25.586Z,13.21
2023-05-19T06:37:10.313Z,13.40
2023-05-19T06:39:55.219Z,13.62
2023-05-19T06:42:40.098Z,13.71
2023-05-19T06:45:25.185Z,13.79
2023-05-19T06:48:10.140Z,13.69
2023-05-19T06:50:54.816Z,13.59
2023-05-19T06:53:39.571Z,13.81
2023-05-19T06:56:24.494Z,13.08
2023-05-19T06:59:09.321Z,12.75
2023-05-19T07:01:54.329Z,13.01
2023-05-19T07:04:39.171Z,12.37
2023-05-19T07:07:23.977Z,13.47
2023-05-19T07:10:08.959Z,13.88
2023-05-19T07:12:53.824Z,14.03
2023-05-19T07:15:38.920Z,14.04
2023-05-19T07:18:23.724Z,13.57
2023-05-19T07:21:08.557Z,13.96
2023-05-19T07:23:53.391Z,13.48
2023-05-19T07:26:38.328Z,14.46
2023-05-19T07:29:23.181Z,13.40
2023-05-19T07:32:08.122Z,13.48
2023-05-19T07:34:53.105Z,13.51
2023-05-19T07:37:37.967Z,14.22
2023-05-19T07:40:23.012Z,14.33
2023-05-19T07:43:07.936Z,14.08
2023-05-19T07:45:52.854Z,14.85
2023-05-19T07:48:37.567Z,15.20
2023-05-19T07:51:22.384Z,15.36
2023-05-19T07:54:07.194Z,15.82
2023-05-19T07:56:52.071Z,14.12
2023-05-19T07:59:36.983Z,14.11
2023-05-19T08:02:21.878Z,14.14
2023-05-19T08:05:06.744Z,13.80
2023-05-19T08:07:51.603Z,13.94
2023-05-19T08:10:36.464Z,13.00
2023-05-19T08:13:21.365Z,12.64
2023-05-19T08:16:06.455Z,13.73
2023-05-19T08:18:51.344Z,12.79
2023-05-19T08:21:36.269Z,12.64
2023-05-19T08:24:21.121Z,12.26
2023-05-19T08:27:05.815Z,12.68
2023-05-19T08:29:50.706Z,13.23
2023-05-19T08:32:35.472Z,12.04
2023-05-19T08:35:20.288Z,11.56
2023-05-19T08:38:05.115Z,12.60
2023-05-19T08:40:50.043Z,13.10
2023-05-19T08:43:34.927Z,13.40
2023-05-19T08:46:19.789Z,13.33
2023-05-19T08:49:04.591Z,14.06
2023-05-19T08:51:49.433Z,14.85
2023-05-19T08:54:34.433Z,13.66
2023-05-19T08:57:19.277Z,13.70
2023-05-19T09:00:04.232Z,14.15
2023-05-19T09:02:59.852Z,13.89
2023-05-19T09:05:46.143Z,12.92
2023-05-19T09:08:30.806Z,12.89
2023-05-19T09:11:15.693Z,12.95
2023-05-19T09:14:00.534Z,12.85
2023-05-19T09:16:45.461Z,13.77
2023-05-19T09:19:30.355Z,14.78
2023-05-19T09:22:15.147Z,14.59
2023-05-19T09:25:00.018Z,14.33
2023-05-19T09:27:44.913Z,14.28
2023-05-19T09:30:29.811Z,14.17
2023-05-19T09:33:14.666Z,13.39
2023-05-19T09:35:59.633Z,13.90
2023-05-19T09:38:44.408Z,14.68
2023-05-19T09:41:29.316Z,14.84
2023-05-19T09:44:14.206Z,15.66
2023-05-19T09:46:58.982Z,15.59
2023-05-19T09:49:43.852Z,16.23
2023-05-19T09:52:28.725Z,16.03
2023-05-19T09:55:13.635Z,15.21
2023-05-19T09:57:58.388Z,14.60
2023-05-19T10:00:43.274Z,14.62
2023-05-19T10:03:28.104Z,14.26
2023-05-19T10:06:12.881Z,14.89
2023-05-19T10:08:57.624Z,15.38
2023-05-19T10:11:42.631Z,16.71
2023-05-19T10:14:27.603Z,17.17
2023-05-19T10:17:12.599Z,16.48
2023-05-19T10:19:57.401Z,16.71
2023-05-19T10:22:42.328Z,17.57
2023-05-19T10:25:27.204Z,17.27
2023-05-19T10:28:12.151Z,17.03
2023-05-19T10:30:57.158Z,16.27
2023-05-19T10:33:42.021Z,15.42
2023-05-19T10:36:26.968Z,16.54
2023-05-19T10:39:11.675Z,17.28
2023-05-19T10:41:56.739Z,16.77
2023-05-19T10:44:41.581Z,17.84
2023-05-19T10:47:26.523Z,17.27
2023-05-19T10:50:11.407Z,16.71
2023-05-19T10:52:56.267Z,17.16
2023-05-19T10:55:41.276Z,17.04
2023-05-19T10:58:26.074Z,16.99
2023-05-19T11:01:11.127Z,16.81
2023-05-19T11:03:56.031Z,15.62
2023-05-19T11:06:40.784Z,16.29
2023-05-19T11:09:34.207Z,17.22
2023-05-19T11:12:25.340Z,16.91
2023-05-19T11:15:10.192Z,16.43
2023-05-19T11:17:55.035Z,16.20
2023-05-19T11:20:40.215Z,16.84
2023-05-19T11:23:24.901Z,16.03
2023-05-19T11:26:09.763Z,17.18
2023-05-19T11:28:54.450Z,18.42
2023-05-19T11:31:39.417Z,18.93
2023-05-19T11:34:24.164Z,18.83
2023-05-19T11:37:08.885Z,19.19
2023-05-19T11:39:53.702Z,18.09
2023-05-19T11:42:38.656Z,16.74
2023-05-19T11:45:23.626Z,15.80
2023-05-19T11:48:08.405Z,16.77
2023-05-19T11:50:53.471Z,15.46
2023-05-19T11:53:38.348Z,16.05
2023-05-19T11:56:23.189Z,16.03
2023-05-19T11:59:08.033Z,17.27
2023-05-19T12:01:52.959Z,16.20
2023-05-19T12:04:37.866Z,17.43
2023-05-19T12:07:22.774Z,16.37
2023-05-19T12:10:07.769Z,16.94
2023-05-19T12:12:52.637Z,16.53
2023-05-19T12:15:37.610Z,17.29
2023-05-19T12:18:22.335Z,16.66
2023-05-19T12:21:07.379Z,16.55
2023-05-19T12:23:52.199Z,17.46
2023-05-19T12:26:37.031Z,17.77
2023-05-19T12:29:21.857Z,18.55
2023-05-19T12:32:06.605Z,18.70
2023-05-19T12:34:51.610Z,19.13
2023-05-19T12:37:36.350Z,18.71
2023-05-19T12:40:21.255Z,18.48
2023-05-19T12:43:06.063Z,18.65
2023-05-19T12:45:51.018Z,19.01
2023-05-19T12:48:35.826Z,19.24
2023-05-19T12:51:20.718Z,17.73
2023-05-19T12:54:06.010Z,18.08
2023-05-19T12:56:50.844Z,18.07
2023-05-19T12:59:38.665Z,18.07
2023-05-19T13:02:23.616Z,17.45
2023-05-19T13:05:08.516Z,16.16
2023-05-19T13:07:53.335Z,16.19
2023-05-19T13:10:38.331Z,15.79
2023-05-19T13:13:23.093Z,16.13
2023-05-19T13:16:07.881Z,16.78
2023-05-19T13:18:53.918Z,16.07
2023-05-19T13:21:38.757Z,16.51
2023-05-19T13:24:23.827Z,15.44
2023-05-19T13:27:08.702Z,15.03
2023-05-19T13:29:53.630Z,15.30
2023-05-19T13:32:38.481Z,15.52
2023-05-19T13:35:23.518Z,15.54
2023-05-19T13:38:08.305Z,15.79
2023-05-19T13:40:52.985Z,16.81
2023-05-19T13:43:37.986Z,16.46
2023-05-19T13:46:29.814Z,17.17
2023-05-19T13:49:21.735Z,17.13
2023-05-19T13:52:06.550Z,15.02
2023-05-19T13:54:51.439Z,15.55
2023-05-19T13:57:36.298Z,14.61
2023-05-19T14:00:21.401Z,13.80
2023-05-19T14:03:06.394Z,13.82
2023-05-19T14:05:51.077Z,14.99
2023-05-19T14:08:35.895Z,16.55
2023-05-19T14:11:20.725Z,17.02
2023-05-19T14:14:05.562Z,16.32
2023-05-19T14:16:50.527Z,16.65
2023-05-19T14:19:35.447Z,17.50
2023-05-19T14:22:20.150Z,18.15
2023-05-19T14:25:05.037Z,18.13
2023-05-19T14:27:49.900Z,18.68
2023-05-19T14:30:34.858Z,19.17
2023-05-19T14:33:20.052Z,18.70
2023-05-19T14:36:04.873Z,18.15
2023-05-19T14:38:49.963Z,17.94
2023-05-19T14:41:34.634Z,18.35
2023-05-19T14:44:19.491Z,18.28
2023-05-19T14:47:04.379Z,17.73
2023-05-19T14:49:49.271Z,18.18
2023-05-19T14:52:34.023Z,18.62
2023-05-19T14:55:18.791Z,18.81
2023-05-19T14:58:07.917Z,18.97
2023-05-19T15:01:01.043Z,19.14
2023-05-19T15:03:45.880Z,18.58
2023-05-19T15:06:30.826Z,18.76
2023-05-19T15:09:15.835Z,19.22
2023-05-19T15:12:00.620Z,19.49
2023-05-19T15:14:45.426Z,19.22
2023-05-19T15:17:30.310Z,18.78
2023-05-19T15:20:15.121Z,17.46
2023-05-19T15:22:59.932Z,17.93
2023-05-19T15:25:44.940Z,16.83
2023-05-19T15:28:29.762Z,17.19
2023-05-19T15:31:14.511Z,17.02
2023-05-19T15:33:59.445Z,16.87
2023-05-19T15:36:44.462Z,16.11
2023-05-19T15:39:29.578Z,16.53
2023-05-19T15:42:14.545Z,16.97
2023-05-19T15:44:59.582Z,17.56
2023-05-19T15:47:44.418Z,17.54
2023-05-19T15:50:29.572Z,17.58
2023-05-19T15:53:14.479Z,17.60
2023-05-19T15:55:59.227Z,17.68
2023-05-19T15:58:44.110Z,17.67
2023-05-19T16:01:29.141Z,16.98
2023-05-19T16:04:14.176Z,16.88
2023-05-19T16:06:58.979Z,17.36
2023-05-19T16:09:43.996Z,17.99
2023-05-19T16:12:28.867Z,17.80
2023-05-19T16:15:13.924Z,18.25
2023-05-19T16:17:58.869Z,17.56
2023-05-19T16:20:43.589Z,16.91
2023-05-19T16:23:28.630Z,17.58
2023-05-19T16:26:13.494Z,17.97
2023-05-19T16:28:58.459Z,17.73
2023-05-19T16:31:43.455Z,17.04
2023-05-19T16:34:28.705Z,16.89
2023-05-19T16:37:15.122Z,16.88
2023-05-19T16:40:00.178Z,16.35
2023-05-19T16:42:45.084Z,17.43
2023-05-19T16:45:29.742Z,17.50
2023-05-19T16:48:14.784Z,16.47
2023-05-19T16:50:59.579Z,15.60
2023-05-19T16:53:44.472Z,16.31
2023-05-19T16:56:29.420Z,16.51
2023-05-19T16:59:14.251Z,16.75
2023-05-19T17:01:59.173Z,16.73
2023-05-19T17:04:44.151Z,17.05
2023-05-19T17:07:29.185Z,17.20
2023-05-19T17:10:13.940Z,17.28
2023-05-19T17:12:58.946Z,17.34
2023-05-19T17:15:43.826Z,17.29
2023-05-19T17:18:28.708Z,17.17
2023-05-19T17:21:13.471Z,16.86
2023-05-19T17:23:58.432Z,16.84
2023-05-19T17:26:43.190Z,16.78
2023-05-19T17:29:28.152Z,16.69
2023-05-19T17:32:13.009Z,16.61
2023-05-19T17:34:57.973Z,16.84
2023-05-19T17:37:42.942Z,16.61
2023-05-19T17:40:27.927Z,16.56
2023-05-19T17:43:12.955Z,16.59
2023-05-19T17:45:58.892Z,16.30
2023-05-19T17:48:45.601Z,16.01
2023-05-19T17:51:30.431Z,16.02
2023-05-19T17:54:15.313Z,15.90
2023-05-19T17:57:00.208Z,15.36
2023-05-19T17:59:45.039Z,15.35
2023-05-19T18:02:30.005Z,15.62
2023-05-19T18:05:14.752Z,15.48
2023-05-19T18:07:59.555Z,15.48
2023-05-19T18:10:44.377Z,15.68
2023-05-19T18:13:29.270Z,15.39
2023-05-19T18:16:14.166Z,15.43
2023-05-19T18:18:58.864Z,15.49
2023-05-19T18:21:43.788Z,15.26
2023-05-19T18:24:28.637Z,15.21
2023-05-19T18:27:13.445Z,15.20
2023-05-19T18:29:58.196Z,14.93
2023-05-19T18:32:43.089Z,15.18
2023-05-19T18:35:27.937Z,14.97
2023-05-19T18:38:12.852Z,14.83
2023-05-19T18:40:57.768Z,14.90
2023-05-19T18:43:42.563Z,14.61
2023-05-19T18:46:27.615Z,14.42
2023-05-19T18:49:12.301Z,14.40
2023-05-19T18:51:57.101Z,14.62
2023-05-19T18:54:41.844Z,14.56
2023-05-19T18:57:26.794Z,14.30
2023-05-19T19:00:11.715Z,14.35
2023-05-19T19:02:56.594Z,14.44
2023-05-19T19:05:41.515Z,14.37
2023-05-19T19:08:26.239Z,14.03
2023-05-19T19:11:11.080Z,13.86
2023-05-19T19:13:55.901Z,13.17
2023-05-19T19:16:40.935Z,12.94
2023-05-19T19:19:25.790Z,13.15
2023-05-19T19:22:10.619Z,13.57
2023-05-19T19:24:55.540Z,13.65
2023-05-19T19:27:40.478Z,13.90
2023-05-19T19:30:25.255Z,13.96
2023-05-19T19:33:10.128Z,14.00
2023-05-19T19:35:55.203Z,13.97
2023-05-19T19:38:40.084Z,13.92
2023-05-19T19:41:25.049Z,13.85
2023-05-19T19:44:09.765Z,13.94
2023-05-19T19:46:54.770Z,14.02
2023-05-19T19:49:39.429Z,14.05
2023-05-19T19:52:24.469Z,13.72
2023-05-19T19:55:09.251Z,12.76
2023-05-19T19:57:54.110Z,13.33
2023-05-19T20:00:39.099Z,13.62
2023-05-19T20:03:23.900Z,13.66
2023-05-19T20:06:08.697Z,13.78
2023-05-19T20:08:53.511Z,12.80
2023-05-19T20:11:38.491Z,12.44
2023-05-19T20:14:23.404Z,13.16
2023-05-19T20:17:08.242Z,12.98
2023-05-19T20:19:53.183Z,13.35
2023-05-19T20:22:38.058Z,13.47
2023-05-19T20:25:22.926Z,13.45
2023-05-19T20:28:07.709Z,13.50
2023-05-19T20:30:52.558Z,13.59
2023-05-19T20:33:37.363Z,13.52
2023-05-19T20:36:22.460Z,13.33
2023-05-19T20:39:07.268Z,13.61
2023-05-19T20:41:52.235Z,13.45
2023-05-19T20:44:37.063Z,13.58
2023-05-19T20:47:21.837Z,13.26
2023-05-19T20:50:06.761Z,12.70
2023-05-19T20:52:51.667Z,13.01
2023-05-19T20:55:36.592Z,13.06
2023-05-19T20:58:21.450Z,13.12
